sensor_id;sensor_type;location;lat;lon;timestamp;P1;durP1;ratioP1;P2;durP2;ratioP2
72569;SDS011;60594;50.204;8.844;2022-08-21T00:00:43;6.18;;;3.30;;
72569;SDS011;60594;50.204;8.844;2022-08-21T00:03:11;6.03;;;3.33;;
72569;SDS011;60594;50.204;8.844;2022-08-21T00:05:43;5.32;;;3.13;;
72569;SDS011;60594;50.204;8.844;2022-08-21T00:08:14;6.15;;;3.60;;
72569;SDS011;60594;50.204;8.844;2022-08-21T00:10:42;7.03;;;3.20;;
72569;SDS011;60594;50.204;8.844;2022-08-21T00:13:09;7.90;;;3.40;;
72569;SDS011;60594;50.204;8.844;2022-08-21T00:15:37;7.57;;;3.58;;
72569;SDS011;60594;50.204;8.844;2022-08-21T00:18:07;6.63;;;3.42;;
72569;SDS011;60594;50.204;8.844;2022-08-21T00:20:35;7.18;;;3.65;;
72569;SDS011;60594;50.204;8.844;2022-08-21T00:23:01;7.65;;;3.58;;
72569;SDS011;60594;50.204;8.844;2022-08-21T00:25:28;6.35;;;3.47;;
72569;SDS011;60594;50.204;8.844;2022-08-21T00:27:56;6.15;;;3.50;;
72569;SDS011;60594;50.204;8.844;2022-08-21T00:30:23;7.55;;;3.53;;
72569;SDS011;60594;50.204;8.844;2022-08-21T00:32:51;6.60;;;3.50;;
72569;SDS011;60594;50.204;8.844;2022-08-21T00:35:23;6.95;;;3.40;;
72569;SDS011;60594;50.204;8.844;2022-08-21T00:37:54;6.75;;;2.97;;
72569;SDS011;60594;50.204;8.844;2022-08-21T00:40:23;7.35;;;3.58;;
72569;SDS011;60594;50.204;8.844;2022-08-21T00:42:57;7.47;;;3.42;;
72569;SDS011;60594;50.204;8.844;2022-08-21T00:45:24;7.60;;;3.55;;
72569;SDS011;60594;50.204;8.844;2022-08-21T00:47:51;6.65;;;3.42;;
72569;SDS011;60594;50.204;8.844;2022-08-21T00:50:22;8.02;;;3.38;;
72569;SDS011;60594;50.204;8.844;2022-08-21T00:52:52;7.28;;;3.80;;
72569;SDS011;60594;50.204;8.844;2022-08-21T00:55:19;6.90;;;3.60;;
72569;SDS011;60594;50.204;8.844;2022-08-21T00:57:49;6.05;;;3.47;;
72569;SDS011;60594;50.204;8.844;2022-08-21T01:00:19;6.30;;;3.45;;
72569;SDS011;60594;50.204;8.844;2022-08-21T01:02:54;8.57;;;3.67;;
72569;SDS011;60594;50.204;8.844;2022-08-21T01:05:25;6.15;;;3.10;;
72569;SDS011;60594;50.204;8.844;2022-08-21T01:07:53;6.70;;;3.53;;
72569;SDS011;60594;50.204;8.844;2022-08-21T01:10:23;6.60;;;3.47;;
72569;SDS011;60594;50.204;8.844;2022-08-21T01:12:52;7.05;;;3.50;;
72569;SDS011;60594;50.204;8.844;2022-08-21T01:15:21;6.25;;;3.50;;
72569;SDS011;60594;50.204;8.844;2022-08-21T01:17:53;5.47;;;3.38;;
72569;SDS011;60594;50.204;8.844;2022-08-21T01:20:19;6.45;;;3.40;;
72569;SDS011;60594;50.204;8.844;2022-08-21T01:22:46;6.80;;;3.65;;
72569;SDS011;60594;50.204;8.844;2022-08-21T01:25:17;6.28;;;3.03;;
72569;SDS011;60594;50.204;8.844;2022-08-21T01:30:13;5.20;;;2.88;;
72569;SDS011;60594;50.204;8.844;2022-08-21T01:32:46;6.60;;;3.10;;
72569;SDS011;60594;50.204;8.844;2022-08-21T01:35:14;7.25;;;3.47;;
72569;SDS011;60594;50.204;8.844;2022-08-21T01:37:43;6.93;;;3.90;;
72569;SDS011;60594;50.204;8.844;2022-08-21T01:40:12;6.70;;;3.33;;
72569;SDS011;60594;50.204;8.844;2022-08-21T01:42:39;6.28;;;3.22;;
72569;SDS011;60594;50.204;8.844;2022-08-21T01:45:06;5.72;;;3.40;;
72569;SDS011;60594;50.204;8.844;2022-08-21T01:47:34;6.13;;;3.53;;
72569;SDS011;60594;50.204;8.844;2022-08-21T01:50:01;7.20;;;3.42;;
72569;SDS011;60594;50.204;8.844;2022-08-21T01:52:31;7.53;;;4.03;;
72569;SDS011;60594;50.204;8.844;2022-08-21T01:54:57;7.30;;;3.75;;
72569;SDS011;60594;50.204;8.844;2022-08-21T01:57:24;6.93;;;3.60;;
72569;SDS011;60594;50.204;8.844;2022-08-21T01:59:50;6.68;;;3.65;;
72569;SDS011;60594;50.204;8.844;2022-08-21T02:02:17;8.18;;;3.65;;
72569;SDS011;60594;50.204;8.844;2022-08-21T02:04:44;9.63;;;4.25;;
72569;SDS011;60594;50.204;8.844;2022-08-21T02:07:10;9.05;;;4.13;;
72569;SDS011;60594;50.204;8.844;2022-08-21T02:09:38;8.57;;;4.20;;
72569;SDS011;60594;50.204;8.844;2022-08-21T02:12:04;6.82;;;3.72;;
72569;SDS011;60594;50.204;8.844;2022-08-21T02:14:31;6.97;;;3.80;;
72569;SDS011;60594;50.204;8.844;2022-08-21T02:16:59;9.35;;;4.50;;
72569;SDS011;60594;50.204;8.844;2022-08-21T02:19:26;8.23;;;5.05;;
72569;SDS011;60594;50.204;8.844;2022-08-21T02:21:52;9.50;;;4.32;;
72569;SDS011;60594;50.204;8.844;2022-08-21T02:24:19;8.35;;;4.45;;
72569;SDS011;60594;50.204;8.844;2022-08-21T02:26:45;7.32;;;4.10;;
72569;SDS011;60594;50.204;8.844;2022-08-21T02:29:12;7.43;;;4.15;;
72569;SDS011;60594;50.204;8.844;2022-08-21T02:31:39;6.80;;;3.75;;
72569;SDS011;60594;50.204;8.844;2022-08-21T02:34:05;8.25;;;3.67;;
72569;SDS011;60594;50.204;8.844;2022-08-21T02:36:31;6.50;;;3.95;;
72569;SDS011;60594;50.204;8.844;2022-08-21T02:38:59;6.85;;;3.90;;
72569;SDS011;60594;50.204;8.844;2022-08-21T02:41:27;7.50;;;3.92;;
72569;SDS011;60594;50.204;8.844;2022-08-21T02:43:54;6.70;;;3.60;;
72569;SDS011;60594;50.204;8.844;2022-08-21T02:46:22;6.93;;;3.78;;
72569;SDS011;60594;50.204;8.844;2022-08-21T02:48:49;7.28;;;3.75;;
72569;SDS011;60594;50.204;8.844;2022-08-21T02:51:17;6.90;;;3.83;;
72569;SDS011;60594;50.204;8.844;2022-08-21T02:53:48;7.55;;;3.83;;
72569;SDS011;60594;50.204;8.844;2022-08-21T02:56:15;7.75;;;3.80;;
72569;SDS011;60594;50.204;8.844;2022-08-21T02:58:45;6.25;;;3.67;;
72569;SDS011;60594;50.204;8.844;2022-08-21T03:01:15;8.10;;;3.95;;
72569;SDS011;60594;50.204;8.844;2022-08-21T03:03:42;7.22;;;4.10;;
72569;SDS011;60594;50.204;8.844;2022-08-21T03:06:13;5.78;;;3.40;;
72569;SDS011;60594;50.204;8.844;2022-08-21T03:08:41;7.43;;;4.30;;
72569;SDS011;60594;50.204;8.844;2022-08-21T03:13:35;6.53;;;3.65;;
72569;SDS011;60594;50.204;8.844;2022-08-21T03:16:02;7.07;;;3.65;;
72569;SDS011;60594;50.204;8.844;2022-08-21T03:18:29;6.07;;;3.53;;
72569;SDS011;60594;50.204;8.844;2022-08-21T03:20:55;7.80;;;4.22;;
72569;SDS011;60594;50.204;8.844;2022-08-21T03:23:22;7.30;;;4.20;;
72569;SDS011;60594;50.204;8.844;2022-08-21T03:25:50;7.82;;;3.88;;
72569;SDS011;60594;50.204;8.844;2022-08-21T03:28:18;6.55;;;3.70;;
72569;SDS011;60594;50.204;8.844;2022-08-21T03:30:49;8.60;;;4.32;;
72569;SDS011;60594;50.204;8.844;2022-08-21T03:33:17;6.97;;;4.25;;
72569;SDS011;60594;50.204;8.844;2022-08-21T03:35:45;9.63;;;4.05;;
72569;SDS011;60594;50.204;8.844;2022-08-21T03:38:18;8.05;;;3.90;;
72569;SDS011;60594;50.204;8.844;2022-08-21T03:40:45;8.95;;;4.30;;
72569;SDS011;60594;50.204;8.844;2022-08-21T03:43:12;7.15;;;4.07;;
72569;SDS011;60594;50.204;8.844;2022-08-21T03:45:38;7.80;;;4.40;;
72569;SDS011;60594;50.204;8.844;2022-08-21T03:48:05;7.95;;;4.13;;
72569;SDS011;60594;50.204;8.844;2022-08-21T03:50:34;8.70;;;4.07;;
72569;SDS011;60594;50.204;8.844;2022-08-21T03:53:04;7.32;;;3.95;;
72569;SDS011;60594;50.204;8.844;2022-08-21T03:55:31;7.68;;;4.38;;
72569;SDS011;60594;50.204;8.844;2022-08-21T03:57:58;7.43;;;4.45;;
72569;SDS011;60594;50.204;8.844;2022-08-21T04:00:26;8.18;;;4.70;;
72569;SDS011;60594;50.204;8.844;2022-08-21T04:02:52;8.05;;;4.07;;
72569;SDS011;60594;50.204;8.844;2022-08-21T04:05:19;7.80;;;4.03;;
72569;SDS011;60594;50.204;8.844;2022-08-21T04:07:57;8.68;;;4.32;;
72569;SDS011;60594;50.204;8.844;2022-08-21T04:10:27;7.97;;;4.22;;
72569;SDS011;60594;50.204;8.844;2022-08-21T04:12:56;8.40;;;4.15;;
72569;SDS011;60594;50.204;8.844;2022-08-21T04:15:24;8.98;;;4.35;;
72569;SDS011;60594;50.204;8.844;2022-08-21T04:17:51;9.93;;;4.45;;
72569;SDS011;60594;50.204;8.844;2022-08-21T04:20:18;7.05;;;3.83;;
72569;SDS011;60594;50.204;8.844;2022-08-21T04:22:48;7.80;;;4.35;;
72569;SDS011;60594;50.204;8.844;2022-08-21T04:25:19;7.82;;;4.75;;
72569;SDS011;60594;50.204;8.844;2022-08-21T04:27:47;9.32;;;4.85;;
72569;SDS011;60594;50.204;8.844;2022-08-21T04:30:14;7.03;;;3.67;;
72569;SDS011;60594;50.204;8.844;2022-08-21T04:32:42;7.60;;;4.30;;
72569;SDS011;60594;50.204;8.844;2022-08-21T04:35:10;7.80;;;4.32;;
72569;SDS011;60594;50.204;8.844;2022-08-21T04:37:37;9.25;;;4.43;;
72569;SDS011;60594;50.204;8.844;2022-08-21T04:40:04;7.57;;;4.32;;
72569;SDS011;60594;50.204;8.844;2022-08-21T04:42:32;7.82;;;4.38;;
72569;SDS011;60594;50.204;8.844;2022-08-21T04:44:59;8.82;;;4.63;;
72569;SDS011;60594;50.204;8.844;2022-08-21T04:47:25;8.90;;;4.30;;
72569;SDS011;60594;50.204;8.844;2022-08-21T04:49:52;11.02;;;4.78;;
72569;SDS011;60594;50.204;8.844;2022-08-21T04:52:20;8.45;;;4.82;;
72569;SDS011;60594;50.204;8.844;2022-08-21T04:54:49;8.90;;;4.70;;
72569;SDS011;60594;50.204;8.844;2022-08-21T04:57:19;8.95;;;5.43;;
72569;SDS011;60594;50.204;8.844;2022-08-21T04:59:47;10.02;;;5.32;;
72569;SDS011;60594;50.204;8.844;2022-08-21T05:02:16;9.13;;;5.18;;
72569;SDS011;60594;50.204;8.844;2022-08-21T05:04:47;7.70;;;4.85;;
72569;SDS011;60594;50.204;8.844;2022-08-21T05:07:19;10.82;;;5.65;;
72569;SDS011;60594;50.204;8.844;2022-08-21T05:09:48;9.02;;;4.93;;
72569;SDS011;60594;50.204;8.844;2022-08-21T05:12:24;9.02;;;5.18;;
72569;SDS011;60594;50.204;8.844;2022-08-21T05:14:51;9.10;;;4.72;;
72569;SDS011;60594;50.204;8.844;2022-08-21T05:17:17;9.52;;;5.40;;
72569;SDS011;60594;50.204;8.844;2022-08-21T05:19:44;8.07;;;5.43;;
72569;SDS011;60594;50.204;8.844;2022-08-21T05:22:11;10.38;;;5.53;;
72569;SDS011;60594;50.204;8.844;2022-08-21T05:24:45;10.40;;;5.57;;
72569;SDS011;60594;50.204;8.844;2022-08-21T05:27:11;10.70;;;5.95;;
72569;SDS011;60594;50.204;8.844;2022-08-21T05:29:39;9.65;;;5.93;;
72569;SDS011;60594;50.204;8.844;2022-08-21T05:32:09;9.50;;;6.03;;
72569;SDS011;60594;50.204;8.844;2022-08-21T05:34:37;10.57;;;5.68;;
72569;SDS011;60594;50.204;8.844;2022-08-21T05:37:03;9.98;;;5.85;;
72569;SDS011;60594;50.204;8.844;2022-08-21T05:39:30;10.45;;;6.18;;
72569;SDS011;60594;50.204;8.844;2022-08-21T05:41:57;10.60;;;6.15;;
72569;SDS011;60594;50.204;8.844;2022-08-21T05:44:23;11.13;;;6.53;;
72569;SDS011;60594;50.204;8.844;2022-08-21T05:46:50;9.23;;;5.65;;
72569;SDS011;60594;50.204;8.844;2022-08-21T05:49:18;11.38;;;5.95;;
72569;SDS011;60594;50.204;8.844;2022-08-21T05:51:44;8.25;;;5.53;;
72569;SDS011;60594;50.204;8.844;2022-08-21T05:54:11;9.80;;;5.78;;
72569;SDS011;60594;50.204;8.844;2022-08-21T05:56:37;12.43;;;6.15;;
72569;SDS011;60594;50.204;8.844;2022-08-21T05:59:04;9.10;;;5.10;;
72569;SDS011;60594;50.204;8.844;2022-08-21T06:01:31;10.68;;;6.03;;
72569;SDS011;60594;50.204;8.844;2022-08-21T06:03:58;11.40;;;6.28;;
72569;SDS011;60594;50.204;8.844;2022-08-21T06:06:25;11.70;;;5.97;;
72569;SDS011;60594;50.204;8.844;2022-08-21T06:08:52;10.43;;;5.90;;
72569;SDS011;60594;50.204;8.844;2022-08-21T06:11:19;13.27;;;5.82;;
72569;SDS011;60594;50.204;8.844;2022-08-21T06:13:45;11.25;;;6.65;;
72569;SDS011;60594;50.204;8.844;2022-08-21T06:16:13;8.30;;;5.00;;
72569;SDS011;60594;50.204;8.844;2022-08-21T06:18:42;12.00;;;6.07;;
72569;SDS011;60594;50.204;8.844;2022-08-21T06:21:10;9.32;;;6.00;;
72569;SDS011;60594;50.204;8.844;2022-08-21T06:23:37;9.45;;;5.53;;
72569;SDS011;60594;50.204;8.844;2022-08-21T06:26:05;10.50;;;6.68;;
72569;SDS011;60594;50.204;8.844;2022-08-21T06:28:34;9.65;;;5.63;;
72569;SDS011;60594;50.204;8.844;2022-08-21T06:31:01;9.57;;;5.85;;
72569;SDS011;60594;50.204;8.844;2022-08-21T06:33:35;10.90;;;6.05;;
72569;SDS011;60594;50.204;8.844;2022-08-21T06:36:01;11.73;;;6.05;;
72569;SDS011;60594;50.204;8.844;2022-08-21T06:38:28;11.00;;;6.47;;
72569;SDS011;60594;50.204;8.844;2022-08-21T06:40:56;9.88;;;5.95;;
72569;SDS011;60594;50.204;8.844;2022-08-21T06:43:24;10.95;;;6.20;;
72569;SDS011;60594;50.204;8.844;2022-08-21T06:45:50;9.90;;;5.75;;
72569;SDS011;60594;50.204;8.844;2022-08-21T06:48:17;11.43;;;5.55;;
72569;SDS011;60594;50.204;8.844;2022-08-21T06:50:43;8.93;;;5.22;;
72569;SDS011;60594;50.204;8.844;2022-08-21T06:53:15;10.10;;;6.25;;
72569;SDS011;60594;50.204;8.844;2022-08-21T06:55:45;9.35;;;5.25;;
72569;SDS011;60594;50.204;8.844;2022-08-21T06:58:13;9.35;;;5.32;;
72569;SDS011;60594;50.204;8.844;2022-08-21T07:00:41;10.63;;;6.13;;
72569;SDS011;60594;50.204;8.844;2022-08-21T07:03:21;10.90;;;6.03;;
72569;SDS011;60594;50.204;8.844;2022-08-21T07:05:53;8.93;;;5.10;;
72569;SDS011;60594;50.204;8.844;2022-08-21T07:08:20;9.98;;;5.22;;
72569;SDS011;60594;50.204;8.844;2022-08-21T07:10:47;10.13;;;5.88;;
72569;SDS011;60594;50.204;8.844;2022-08-21T07:13:18;10.23;;;5.25;;
72569;SDS011;60594;50.204;8.844;2022-08-21T07:15:44;11.02;;;5.93;;
72569;SDS011;60594;50.204;8.844;2022-08-21T07:18:14;10.23;;;5.93;;
72569;SDS011;60594;50.204;8.844;2022-08-21T07:20:43;13.30;;;6.13;;
72569;SDS011;60594;50.204;8.844;2022-08-21T07:23:19;9.38;;;5.07;;
72569;SDS011;60594;50.204;8.844;2022-08-21T07:25:49;10.93;;;5.32;;
72569;SDS011;60594;50.204;8.844;2022-08-21T07:28:16;10.35;;;5.60;;
72569;SDS011;60594;50.204;8.844;2022-08-21T07:30:42;10.07;;;5.90;;
72569;SDS011;60594;50.204;8.844;2022-08-21T07:33:09;10.60;;;5.57;;
72569;SDS011;60594;50.204;8.844;2022-08-21T07:35:35;9.30;;;5.68;;
72569;SDS011;60594;50.204;8.844;2022-08-21T07:38:02;9.57;;;5.47;;
72569;SDS011;60594;50.204;8.844;2022-08-21T07:40:28;8.55;;;4.90;;
72569;SDS011;60594;50.204;8.844;2022-08-21T07:42:56;12.20;;;5.18;;
72569;SDS011;60594;50.204;8.844;2022-08-21T07:45:23;7.50;;;4.88;;
72569;SDS011;60594;50.204;8.844;2022-08-21T07:47:50;10.55;;;5.07;;
72569;SDS011;60594;50.204;8.844;2022-08-21T07:50:17;9.65;;;5.15;;
72569;SDS011;60594;50.204;8.844;2022-08-21T07:52:44;11.10;;;5.38;;
72569;SDS011;60594;50.204;8.844;2022-08-21T07:55:12;10.35;;;6.80;;
72569;SDS011;60594;50.204;8.844;2022-08-21T07:57:41;9.20;;;5.13;;
72569;SDS011;60594;50.204;8.844;2022-08-21T08:00:11;8.98;;;5.80;;
72569;SDS011;60594;50.204;8.844;2022-08-21T08:02:40;7.82;;;4.65;;
72569;SDS011;60594;50.204;8.844;2022-08-21T08:05:10;8.75;;;5.07;;
72569;SDS011;60594;50.204;8.844;2022-08-21T08:07:38;9.18;;;4.82;;
72569;SDS011;60594;50.204;8.844;2022-08-21T08:10:06;8.68;;;4.78;;
72569;SDS011;60594;50.204;8.844;2022-08-21T08:12:35;9.05;;;5.07;;
72569;SDS011;60594;50.204;8.844;2022-08-21T08:15:04;9.70;;;5.15;;
72569;SDS011;60594;50.204;8.844;2022-08-21T08:17:32;7.53;;;4.22;;
72569;SDS011;60594;50.204;8.844;2022-08-21T08:20:00;10.20;;;4.75;;
72569;SDS011;60594;50.204;8.844;2022-08-21T08:22:30;10.63;;;5.07;;
72569;SDS011;60594;50.204;8.844;2022-08-21T08:24:57;9.43;;;4.88;;
72569;SDS011;60594;50.204;8.844;2022-08-21T08:27:26;9.75;;;4.82;;
72569;SDS011;60594;50.204;8.844;2022-08-21T08:29:53;8.27;;;4.82;;
72569;SDS011;60594;50.204;8.844;2022-08-21T08:32:23;9.35;;;5.13;;
72569;SDS011;60594;50.204;8.844;2022-08-21T08:34:49;8.63;;;4.70;;
72569;SDS011;60594;50.204;8.844;2022-08-21T08:37:19;10.15;;;4.80;;
72569;SDS011;60594;50.204;8.844;2022-08-21T08:39:46;8.10;;;4.30;;
72569;SDS011;60594;50.204;8.844;2022-08-21T08:44:44;9.70;;;5.00;;
72569;SDS011;60594;50.204;8.844;2022-08-21T08:47:13;8.23;;;4.40;;
72569;SDS011;60594;50.204;8.844;2022-08-21T08:52:24;11.13;;;4.95;;
72569;SDS011;60594;50.204;8.844;2022-08-21T08:55:00;9.90;;;4.72;;
72569;SDS011;60594;50.204;8.844;2022-08-21T08:57:30;7.70;;;4.30;;
72569;SDS011;60594;50.204;8.844;2022-08-21T09:00:00;11.48;;;5.57;;
72569;SDS011;60594;50.204;8.844;2022-08-21T09:02:30;11.50;;;5.65;;
72569;SDS011;60594;50.204;8.844;2022-08-21T09:04:59;9.57;;;5.00;;
72569;SDS011;60594;50.204;8.844;2022-08-21T09:07:39;8.18;;;4.53;;
72569;SDS011;60594;50.204;8.844;2022-08-21T09:15:36;9.93;;;4.97;;
72569;SDS011;60594;50.204;8.844;2022-08-21T09:27:04;7.55;;;3.70;;
72569;SDS011;60594;50.204;8.844;2022-08-21T09:29:38;7.07;;;3.90;;
72569;SDS011;60594;50.204;8.844;2022-08-21T09:32:11;8.32;;;3.72;;
72569;SDS011;60594;50.204;8.844;2022-08-21T09:34:42;7.13;;;3.40;;
72569;SDS011;60594;50.204;8.844;2022-08-21T09:37:17;9.90;;;3.53;;
72569;SDS011;60594;50.204;8.844;2022-08-21T09:39:48;6.90;;;3.80;;
72569;SDS011;60594;50.204;8.844;2022-08-21T09:42:24;7.75;;;3.78;;
72569;SDS011;60594;50.204;8.844;2022-08-21T09:45:15;9.85;;;3.20;;
72569;SDS011;60594;50.204;8.844;2022-08-21T09:47:43;5.70;;;2.63;;
72569;SDS011;60594;50.204;8.844;2022-08-21T09:50:17;7.32;;;3.47;;
72569;SDS011;60594;50.204;8.844;2022-08-21T09:52:53;6.68;;;3.58;;
72569;SDS011;60594;50.204;8.844;2022-08-21T09:55:26;8.02;;;3.50;;
72569;SDS011;60594;50.204;8.844;2022-08-21T09:58:32;5.95;;;3.25;;
72569;SDS011;60594;50.204;8.844;2022-08-21T10:01:02;7.07;;;3.65;;
72569;SDS011;60594;50.204;8.844;2022-08-21T10:03:30;4.53;;;2.60;;
72569;SDS011;60594;50.204;8.844;2022-08-21T10:06:04;7.10;;;2.85;;
72569;SDS011;60594;50.204;8.844;2022-08-21T10:08:36;9.00;;;3.50;;
72569;SDS011;60594;50.204;8.844;2022-08-21T10:13:44;7.05;;;3.00;;
72569;SDS011;60594;50.204;8.844;2022-08-21T10:25:18;6.05;;;3.20;;
72569;SDS011;60594;50.204;8.844;2022-08-21T10:36:28;6.03;;;3.13;;
72569;SDS011;60594;50.204;8.844;2022-08-21T10:44:58;5.45;;;3.10;;
72569;SDS011;60594;50.204;8.844;2022-08-21T10:47:42;6.25;;;3.20;;
72569;SDS011;60594;50.204;8.844;2022-08-21T10:53:00;5.55;;;2.97;;
72569;SDS011;60594;50.204;8.844;2022-08-21T10:55:38;6.18;;;2.83;;
72569;SDS011;60594;50.204;8.844;2022-08-21T10:58:11;6.38;;;2.92;;
72569;SDS011;60594;50.204;8.844;2022-08-21T11:00:46;4.85;;;2.78;;
72569;SDS011;60594;50.204;8.844;2022-08-21T11:06:06;6.68;;;3.15;;
72569;SDS011;60594;50.204;8.844;2022-08-21T11:08:40;5.57;;;2.83;;
72569;SDS011;60594;50.204;8.844;2022-08-21T11:11:15;5.22;;;3.05;;
72569;SDS011;60594;50.204;8.844;2022-08-21T11:19:21;5.78;;;3.10;;
72569;SDS011;60594;50.204;8.844;2022-08-21T11:22:08;4.97;;;2.70;;
72569;SDS011;60594;50.204;8.844;2022-08-21T11:27:32;5.63;;;2.90;;
72569;SDS011;60594;50.204;8.844;2022-08-21T11:30:05;5.60;;;2.83;;
72569;SDS011;60594;50.204;8.844;2022-08-21T11:32:41;5.65;;;3.10;;
72569;SDS011;60594;50.204;8.844;2022-08-21T11:38:27;5.55;;;3.13;;
72569;SDS011;60594;50.204;8.844;2022-08-21T11:43:55;6.25;;;2.88;;
72569;SDS011;60594;50.204;8.844;2022-08-21T11:49:31;7.50;;;2.92;;
72569;SDS011;60594;50.204;8.844;2022-08-21T11:55:29;5.10;;;2.85;;
72569;SDS011;60594;50.204;8.844;2022-08-21T11:58:11;6.85;;;2.88;;
72569;SDS011;60594;50.204;8.844;2022-08-21T12:00:46;5.45;;;2.92;;
72569;SDS011;60594;50.204;8.844;2022-08-21T12:03:26;5.68;;;2.50;;
72569;SDS011;60594;50.204;8.844;2022-08-21T12:08:37;5.40;;;2.92;;
72569;SDS011;60594;50.204;8.844;2022-08-21T12:14:00;5.43;;;2.50;;
72569;SDS011;60594;50.204;8.844;2022-08-21T12:16:34;6.10;;;2.50;;
72569;SDS011;60594;50.204;8.844;2022-08-21T12:19:06;5.88;;;2.80;;
72569;SDS011;60594;50.204;8.844;2022-08-21T12:31:59;4.57;;;2.33;;
72569;SDS011;60594;50.204;8.844;2022-08-21T12:34:29;6.05;;;2.38;;
72569;SDS011;60594;50.204;8.844;2022-08-21T12:37:02;5.13;;;2.20;;
72569;SDS011;60594;50.204;8.844;2022-08-21T12:39:33;5.18;;;2.40;;
72569;SDS011;60594;50.204;8.844;2022-08-21T12:42:06;4.63;;;2.22;;
72569;SDS011;60594;50.204;8.844;2022-08-21T12:44:44;5.30;;;2.67;;
72569;SDS011;60594;50.204;8.844;2022-08-21T12:47:17;5.25;;;2.83;;
72569;SDS011;60594;50.204;8.844;2022-08-21T12:49:58;7.03;;;2.53;;
72569;SDS011;60594;50.204;8.844;2022-08-21T12:52:44;6.10;;;2.58;;
72569;SDS011;60594;50.204;8.844;2022-08-21T12:55:26;4.45;;;2.15;;
72569;SDS011;60594;50.204;8.844;2022-08-21T12:57:56;5.25;;;2.70;;
72569;SDS011;60594;50.204;8.844;2022-08-21T13:00:24;5.93;;;2.58;;
72569;SDS011;60594;50.204;8.844;2022-08-21T13:02:53;6.25;;;2.53;;
72569;SDS011;60594;50.204;8.844;2022-08-21T13:05:27;4.57;;;2.30;;
72569;SDS011;60594;50.204;8.844;2022-08-21T13:07:57;5.05;;;2.17;;
72569;SDS011;60594;50.204;8.844;2022-08-21T13:10:27;4.60;;;2.22;;
72569;SDS011;60594;50.204;8.844;2022-08-21T13:12:55;4.13;;;2.15;;
72569;SDS011;60594;50.204;8.844;2022-08-21T13:15:26;5.68;;;2.50;;
72569;SDS011;60594;50.204;8.844;2022-08-21T13:17:56;5.80;;;2.22;;
72569;SDS011;60594;50.204;8.844;2022-08-21T13:20:35;6.40;;;2.35;;
72569;SDS011;60594;50.204;8.844;2022-08-21T13:23:16;5.30;;;2.28;;
72569;SDS011;60594;50.204;8.844;2022-08-21T13:25:50;5.15;;;2.55;;
72569;SDS011;60594;50.204;8.844;2022-08-21T13:28:16;5.93;;;2.13;;
72569;SDS011;60594;50.204;8.844;2022-08-21T13:30:44;5.70;;;1.95;;
72569;SDS011;60594;50.204;8.844;2022-08-21T13:33:14;4.35;;;2.28;;
72569;SDS011;60594;50.204;8.844;2022-08-21T13:35:52;5.13;;;1.85;;
72569;SDS011;60594;50.204;8.844;2022-08-21T13:38:29;4.40;;;2.13;;
72569;SDS011;60594;50.204;8.844;2022-08-21T13:41:19;5.78;;;2.00;;
72569;SDS011;60594;50.204;8.844;2022-08-21T13:43:55;4.47;;;2.45;;
72569;SDS011;60594;50.204;8.844;2022-08-21T13:46:39;4.85;;;2.15;;
72569;SDS011;60594;50.204;8.844;2022-08-21T13:49:09;4.55;;;2.10;;
72569;SDS011;60594;50.204;8.844;2022-08-21T13:51:36;4.40;;;2.10;;
72569;SDS011;60594;50.204;8.844;2022-08-21T13:56:52;4.00;;;1.80;;
72569;SDS011;60594;50.204;8.844;2022-08-21T13:59:25;5.63;;;1.88;;
72569;SDS011;60594;50.204;8.844;2022-08-21T14:04:49;3.92;;;1.92;;
72569;SDS011;60594;50.204;8.844;2022-08-21T14:07:21;3.97;;;1.83;;
72569;SDS011;60594;50.204;8.844;2022-08-21T14:09:52;4.50;;;1.73;;
72569;SDS011;60594;50.204;8.844;2022-08-21T14:12:28;4.72;;;1.85;;
72569;SDS011;60594;50.204;8.844;2022-08-21T14:15:01;5.38;;;2.20;;
72569;SDS011;60594;50.204;8.844;2022-08-21T14:17:32;4.57;;;2.13;;
72569;SDS011;60594;50.204;8.844;2022-08-21T14:20:05;6.82;;;2.03;;
72569;SDS011;60594;50.204;8.844;2022-08-21T14:27:43;4.00;;;1.80;;
72569;SDS011;60594;50.204;8.844;2022-08-21T14:30:19;3.72;;;1.75;;
72569;SDS011;60594;50.204;8.844;2022-08-21T14:33:03;4.60;;;1.88;;
72569;SDS011;60594;50.204;8.844;2022-08-21T14:35:35;4.07;;;1.90;;
72569;SDS011;60594;50.204;8.844;2022-08-21T14:38:02;5.20;;;1.63;;
72569;SDS011;60594;50.204;8.844;2022-08-21T14:40:28;3.63;;;1.90;;
72569;SDS011;60594;50.204;8.844;2022-08-21T14:42:55;3.70;;;2.00;;
72569;SDS011;60594;50.204;8.844;2022-08-21T14:45:28;4.53;;;1.98;;
72569;SDS011;60594;50.204;8.844;2022-08-21T14:47:58;4.03;;;1.60;;
72569;SDS011;60594;50.204;8.844;2022-08-21T14:50:25;4.38;;;1.90;;
72569;SDS011;60594;50.204;8.844;2022-08-21T14:52:52;3.90;;;1.80;;
72569;SDS011;60594;50.204;8.844;2022-08-21T14:55:19;3.65;;;1.65;;
72569;SDS011;60594;50.204;8.844;2022-08-21T14:57:46;3.53;;;1.80;;
72569;SDS011;60594;50.204;8.844;2022-08-21T15:00:15;3.47;;;1.60;;
72569;SDS011;60594;50.204;8.844;2022-08-21T15:02:45;4.90;;;1.80;;
72569;SDS011;60594;50.204;8.844;2022-08-21T15:05:12;4.35;;;1.83;;
72569;SDS011;60594;50.204;8.844;2022-08-21T15:07:40;4.20;;;1.73;;
72569;SDS011;60594;50.204;8.844;2022-08-21T15:10:07;4.07;;;1.77;;
72569;SDS011;60594;50.204;8.844;2022-08-21T15:12:34;4.25;;;1.80;;
72569;SDS011;60594;50.204;8.844;2022-08-21T15:15:01;3.42;;;1.58;;
72569;SDS011;60594;50.204;8.844;2022-08-21T15:17:28;4.28;;;1.60;;
72569;SDS011;60594;50.204;8.844;2022-08-21T15:19:54;3.92;;;1.63;;
72569;SDS011;60594;50.204;8.844;2022-08-21T15:22:20;5.47;;;1.73;;
72569;SDS011;60594;50.204;8.844;2022-08-21T15:24:47;4.13;;;1.65;;
72569;SDS011;60594;50.204;8.844;2022-08-21T15:27:13;3.58;;;1.73;;
72569;SDS011;60594;50.204;8.844;2022-08-21T15:29:43;4.57;;;1.80;;
72569;SDS011;60594;50.204;8.844;2022-08-21T15:32:17;4.25;;;1.67;;
72569;SDS011;60594;50.204;8.844;2022-08-21T15:34:49;3.85;;;1.63;;
72569;SDS011;60594;50.204;8.844;2022-08-21T15:37:17;4.32;;;1.90;;
72569;SDS011;60594;50.204;8.844;2022-08-21T15:39:45;2.80;;;1.30;;
72569;SDS011;60594;50.204;8.844;2022-08-21T15:42:11;3.30;;;1.50;;
72569;SDS011;60594;50.204;8.844;2022-08-21T15:44:40;4.28;;;1.60;;
72569;SDS011;60594;50.204;8.844;2022-08-21T15:47:09;4.03;;;1.52;;
72569;SDS011;60594;50.204;8.844;2022-08-21T15:49:40;3.50;;;1.50;;
72569;SDS011;60594;50.204;8.844;2022-08-21T15:52:12;3.60;;;1.83;;
72569;SDS011;60594;50.204;8.844;2022-08-21T15:54:39;4.10;;;1.63;;
72569;SDS011;60594;50.204;8.844;2022-08-21T15:57:06;4.60;;;1.67;;
72569;SDS011;60594;50.204;8.844;2022-08-21T15:59:39;3.55;;;1.63;;
72569;SDS011;60594;50.204;8.844;2022-08-21T16:05:05;3.10;;;1.42;;
72569;SDS011;60594;50.204;8.844;2022-08-21T16:07:32;4.13;;;1.70;;
72569;SDS011;60594;50.204;8.844;2022-08-21T16:09:58;4.88;;;1.80;;
72569;SDS011;60594;50.204;8.844;2022-08-21T16:12:27;3.10;;;1.30;;
72569;SDS011;60594;50.204;8.844;2022-08-21T16:15:00;3.67;;;1.60;;
72569;SDS011;60594;50.204;8.844;2022-08-21T16:17:28;4.13;;;1.33;;
72569;SDS011;60594;50.204;8.844;2022-08-21T16:19:58;3.28;;;1.33;;
72569;SDS011;60594;50.204;8.844;2022-08-21T16:22:27;3.35;;;1.50;;
72569;SDS011;60594;50.204;8.844;2022-08-21T16:24:55;3.42;;;1.40;;
72569;SDS011;60594;50.204;8.844;2022-08-21T16:27:23;4.53;;;1.60;;
72569;SDS011;60594;50.204;8.844;2022-08-21T16:29:49;3.40;;;1.25;;
72569;SDS011;60594;50.204;8.844;2022-08-21T16:32:16;3.33;;;1.42;;
72569;SDS011;60594;50.204;8.844;2022-08-21T16:34:47;3.70;;;1.23;;
72569;SDS011;60594;50.204;8.844;2022-08-21T16:37:14;3.08;;;1.40;;
72569;SDS011;60594;50.204;8.844;2022-08-21T16:39:42;3.40;;;1.60;;
72569;SDS011;60594;50.204;8.844;2022-08-21T16:42:12;2.97;;;1.20;;
72569;SDS011;60594;50.204;8.844;2022-08-21T16:44:49;2.33;;;1.05;;
72569;SDS011;60594;50.204;8.844;2022-08-21T16:47:18;3.35;;;1.42;;